GLO1436 SBSP-SBGO
Flight info
| Callsign | GLO1436 |
|---|---|
| Flight time | N/A |
| Altitude | 38000 |
| Route | GERTU UZ25 CORVO |
| Aircraft | B737/M-SDE2E3FGHIRWXY/LB1 |
Departure
| Time | N/A |
|---|---|
| Airport | Congonhas–Deputado Freitas Nobre Airport (SBSP) |
Arrival
| Time | 2026-05-05 20:29 |
|---|---|
| Airport | Santa Genoveva International Airport (SBGO) |
| Time | Latitude | Longitude | Altitude | Speed | Heading |
|---|---|---|---|---|---|
| 2026-05-05 19:51 | -19.85658 | -47.95055 | 40169 ft | 488 kts | 346° |
| 2026-05-05 19:51 | -19.78923 | -47.95962 | 40180 ft | 488 kts | 346° |
| 2026-05-05 19:52 | -19.72194 | -47.96867 | 40185 ft | 487 kts | 346° |
| 2026-05-05 19:52 | -19.65461 | -47.97772 | 40117 ft | 488 kts | 346° |
| 2026-05-05 19:53 | -19.58771 | -47.98670 | 40113 ft | 487 kts | 346° |
| 2026-05-05 19:53 | -19.52047 | -47.99573 | 40128 ft | 487 kts | 346° |
| 2026-05-05 19:54 | -19.45326 | -48.00474 | 40124 ft | 486 kts | 346° |
| 2026-05-05 19:54 | -19.38607 | -48.01374 | 40116 ft | 485 kts | 346° |
| 2026-05-05 19:55 | -19.31946 | -48.02266 | 40127 ft | 485 kts | 346° |
| 2026-05-05 19:55 | -19.25260 | -48.03184 | 40120 ft | 484 kts | 345° |
| 2026-05-05 19:56 | -19.18578 | -48.04138 | 40124 ft | 484 kts | 345° |
| 2026-05-05 19:56 | -19.11906 | -48.05089 | 40122 ft | 483 kts | 345° |
| 2026-05-05 19:57 | -19.05247 | -48.06031 | 40119 ft | 483 kts | 345° |
| 2026-05-05 19:57 | -18.98584 | -48.06972 | 40121 ft | 482 kts | 345° |
| 2026-05-05 19:58 | -18.91931 | -48.07912 | 40211 ft | 482 kts | 345° |
| 2026-05-05 19:58 | -18.88672 | -48.08617 | 40187 ft | 471 kts | 334° |
| 2026-05-05 19:58 | -18.85585 | -48.09715 | 40235 ft | 466 kts | 331° |
| 2026-05-05 19:59 | -18.79635 | -48.12125 | 40224 ft | 465 kts | 330° |
| 2026-05-05 19:59 | -18.73615 | -48.14549 | 40201 ft | 467 kts | 331° |
| 2026-05-05 20:00 | -18.67491 | -48.16917 | 40179 ft | 468 kts | 332° |
| 2026-05-05 20:00 | -18.61360 | -48.19247 | 40144 ft | 468 kts | 332° |
| 2026-05-05 20:01 | -18.55230 | -48.21571 | 40121 ft | 468 kts | 332° |
| 2026-05-05 20:01 | -18.49108 | -48.23895 | 40112 ft | 468 kts | 332° |
| 2026-05-05 20:02 | -18.42982 | -48.26221 | 40100 ft | 468 kts | 332° |
| 2026-05-05 20:02 | -18.36900 | -48.28529 | 40107 ft | 468 kts | 332° |
| 2026-05-05 20:03 | -18.30776 | -48.30851 | 40111 ft | 467 kts | 332° |
| 2026-05-05 20:03 | -18.24661 | -48.33168 | 40098 ft | 467 kts | 332° |
| 2026-05-05 20:04 | -18.18542 | -48.35486 | 40090 ft | 467 kts | 332° |
| 2026-05-05 20:04 | -18.15460 | -48.36656 | 39731 ft | 473 kts | 332° |
| 2026-05-05 20:04 | -18.12406 | -48.37816 | 39253 ft | 472 kts | 332° |
| 2026-05-05 20:04 | -18.09317 | -48.38987 | 38692 ft | 472 kts | 332° |
| 2026-05-05 20:05 | -18.06223 | -48.40158 | 38009 ft | 472 kts | 332° |
| 2026-05-05 20:05 | -18.03132 | -48.41328 | 37382 ft | 472 kts | 332° |
| 2026-05-05 20:05 | -18.00037 | -48.42500 | 36763 ft | 471 kts | 333° |
| 2026-05-05 20:05 | -17.96967 | -48.43661 | 36267 ft | 469 kts | 333° |
| 2026-05-05 20:06 | -17.93905 | -48.44818 | 35796 ft | 465 kts | 333° |
| 2026-05-05 20:06 | -17.90868 | -48.45966 | 35326 ft | 463 kts | 333° |
| 2026-05-05 20:06 | -17.87845 | -48.47109 | 34838 ft | 461 kts | 333° |
| 2026-05-05 20:06 | -17.84832 | -48.48249 | 34355 ft | 460 kts | 333° |
| 2026-05-05 20:07 | -17.81868 | -48.49370 | 33872 ft | 458 kts | 334° |
| 2026-05-05 20:07 | -17.78874 | -48.50502 | 33367 ft | 456 kts | 334° |
| 2026-05-05 20:07 | -17.75900 | -48.51625 | 32900 ft | 453 kts | 334° |
| 2026-05-05 20:07 | -17.72945 | -48.52740 | 32441 ft | 449 kts | 334° |
| 2026-05-05 20:08 | -17.70063 | -48.53959 | 31915 ft | 441 kts | 326° |
| 2026-05-05 20:08 | -17.67412 | -48.55556 | 31335 ft | 437 kts | 322° |
| 2026-05-05 20:08 | -17.64863 | -48.57270 | 30839 ft | 433 kts | 321° |
| 2026-05-05 20:08 | -17.62349 | -48.58989 | 30419 ft | 429 kts | 321° |
| 2026-05-05 20:09 | -17.59844 | -48.60674 | 29937 ft | 426 kts | 322° |
| 2026-05-05 20:09 | -17.57346 | -48.62319 | 29432 ft | 422 kts | 322° |
| 2026-05-05 20:09 | -17.54864 | -48.63928 | 28939 ft | 417 kts | 323° |
| 2026-05-05 20:09 | -17.52405 | -48.65510 | 28466 ft | 412 kts | 323° |
| 2026-05-05 20:10 | -17.49973 | -48.67073 | 27992 ft | 408 kts | 323° |
| 2026-05-05 20:10 | -17.47598 | -48.68599 | 27539 ft | 404 kts | 324° |
| 2026-05-05 20:10 | -17.45219 | -48.70128 | 27215 ft | 397 kts | 324° |
| 2026-05-05 20:10 | -17.42883 | -48.71627 | 26810 ft | 392 kts | 324° |
| 2026-05-05 20:11 | -17.40535 | -48.73135 | 26357 ft | 389 kts | 324° |
| 2026-05-05 20:11 | -17.38242 | -48.74608 | 25935 ft | 386 kts | 324° |
| 2026-05-05 20:11 | -17.35984 | -48.76059 | 25501 ft | 384 kts | 324° |
| 2026-05-05 20:11 | -17.33711 | -48.77519 | 25029 ft | 383 kts | 325° |
| 2026-05-05 20:12 | -17.31444 | -48.78975 | 24570 ft | 382 kts | 325° |
| 2026-05-05 20:12 | -17.29183 | -48.80427 | 24114 ft | 381 kts | 326° |
| 2026-05-05 20:12 | -17.26928 | -48.81874 | 23659 ft | 380 kts | 326° |
| 2026-05-05 20:12 | -17.24683 | -48.83314 | 23114 ft | 379 kts | 326° |
| 2026-05-05 20:13 | -17.22441 | -48.84751 | 22637 ft | 376 kts | 326° |
| 2026-05-05 20:13 | -17.20221 | -48.86174 | 22169 ft | 373 kts | 326° |
| 2026-05-05 20:13 | -17.18016 | -48.87586 | 21707 ft | 370 kts | 326° |
| 2026-05-05 20:13 | -17.15828 | -48.88988 | 21249 ft | 367 kts | 327° |
| 2026-05-05 20:14 | -17.13656 | -48.90380 | 20802 ft | 365 kts | 327° |
| 2026-05-05 20:14 | -17.11498 | -48.91762 | 20347 ft | 363 kts | 327° |
| 2026-05-05 20:14 | -17.09354 | -48.93135 | 19894 ft | 361 kts | 327° |
| 2026-05-05 20:14 | -17.07217 | -48.94503 | 19439 ft | 359 kts | 327° |
| 2026-05-05 20:15 | -17.05089 | -48.95865 | 18975 ft | 358 kts | 327° |
| 2026-05-05 20:15 | -17.02968 | -48.97222 | 18522 ft | 357 kts | 327° |
| 2026-05-05 20:15 | -17.00853 | -48.98574 | 18016 ft | 356 kts | 327° |
| 2026-05-05 20:15 | -16.98745 | -48.99921 | 17534 ft | 353 kts | 327° |
| 2026-05-05 20:16 | -16.96651 | -49.01258 | 17014 ft | 352 kts | 327° |
| 2026-05-05 20:16 | -16.94571 | -49.02586 | 16556 ft | 349 kts | 328° |
| 2026-05-05 20:16 | -16.92507 | -49.03903 | 16102 ft | 346 kts | 328° |
| 2026-05-05 20:16 | -16.90454 | -49.05212 | 15649 ft | 343 kts | 328° |
| 2026-05-05 20:17 | -16.88419 | -49.06511 | 15185 ft | 342 kts | 328° |
| 2026-05-05 20:17 | -16.86407 | -49.07795 | 14768 ft | 339 kts | 328° |
| 2026-05-05 20:17 | -16.84398 | -49.09077 | 14312 ft | 338 kts | 329° |
| 2026-05-05 20:17 | -16.82415 | -49.10340 | 13862 ft | 337 kts | 329° |
| 2026-05-05 20:18 | -16.80581 | -49.11891 | 13340 ft | 336 kts | 309° |
| 2026-05-05 20:18 | -16.79323 | -49.13886 | 12921 ft | 333 kts | 301° |
| 2026-05-05 20:18 | -16.78172 | -49.15971 | 12440 ft | 327 kts | 300° |
| 2026-05-05 20:18 | -16.77072 | -49.17998 | 12004 ft | 316 kts | 300° |
| 2026-05-05 20:19 | -16.76001 | -49.19959 | 11582 ft | 307 kts | 300° |
| 2026-05-05 20:19 | -16.74954 | -49.21856 | 11183 ft | 298 kts | 301° |
| 2026-05-05 20:19 | -16.73922 | -49.23707 | 10785 ft | 291 kts | 301° |
| 2026-05-05 20:19 | -16.72915 | -49.25504 | 10393 ft | 284 kts | 301° |
| 2026-05-05 20:20 | -16.71942 | -49.27240 | 10220 ft | 270 kts | 301° |
| 2026-05-05 20:20 | -16.71002 | -49.28913 | 9849 ft | 265 kts | 301° |
| 2026-05-05 20:20 | -16.70083 | -49.30548 | 9534 ft | 257 kts | 301° |
| 2026-05-05 20:20 | -16.69190 | -49.32136 | 9200 ft | 251 kts | 302° |
| 2026-05-05 20:21 | -16.68317 | -49.33688 | 8893 ft | 245 kts | 302° |
| 2026-05-05 20:21 | -16.67463 | -49.35206 | 8575 ft | 240 kts | 302° |
| 2026-05-05 20:21 | -16.66625 | -49.36697 | 8276 ft | 236 kts | 302° |
| 2026-05-05 20:21 | -16.65795 | -49.38170 | 7995 ft | 235 kts | 301° |
| 2026-05-05 20:22 | -16.64964 | -49.39646 | 7701 ft | 236 kts | 301° |
| 2026-05-05 20:22 | -16.64124 | -49.41099 | 7416 ft | 232 kts | 308° |
| 2026-05-05 20:22 | -16.62888 | -49.42077 | 7170 ft | 218 kts | 344° |
| 2026-05-05 20:22 | -16.61417 | -49.42199 | 6819 ft | 212 kts | 13° |
| 2026-05-05 20:23 | -16.60054 | -49.41699 | 6557 ft | 202 kts | 33° |
| 2026-05-05 20:23 | -16.58876 | -49.40976 | 6333 ft | 197 kts | 32° |
| 2026-05-05 20:23 | -16.57707 | -49.40263 | 6094 ft | 192 kts | 34° |
| 2026-05-05 20:23 | -16.56572 | -49.39572 | 5888 ft | 186 kts | 33° |
| 2026-05-05 20:24 | -16.55499 | -49.38867 | 5659 ft | 178 kts | 47° |
| 2026-05-05 20:24 | -16.54958 | -49.37799 | 5470 ft | 163 kts | 83° |
| 2026-05-05 20:24 | -16.55082 | -49.36659 | 5265 ft | 158 kts | 113° |
| 2026-05-05 20:24 | -16.55597 | -49.35676 | 5103 ft | 154 kts | 117° |
| 2026-05-05 20:25 | -16.56131 | -49.34711 | 4950 ft | 154 kts | 118° |
| 2026-05-05 20:25 | -16.56678 | -49.33729 | 4770 ft | 157 kts | 118° |
| 2026-05-05 20:25 | -16.57220 | -49.32761 | 4576 ft | 152 kts | 118° |
| 2026-05-05 20:25 | -16.57757 | -49.31804 | 4398 ft | 151 kts | 118° |
| 2026-05-05 20:26 | -16.58273 | -49.30884 | 4188 ft | 141 kts | 118° |
| 2026-05-05 20:26 | -16.58740 | -49.30053 | 4065 ft | 129 kts | 118° |
| 2026-05-05 20:26 | -16.59181 | -49.29266 | 3878 ft | 125 kts | 118° |
| 2026-05-05 20:26 | -16.59475 | -49.28745 | 3809 ft | 127 kts | 118° |
| 2026-05-05 20:27 | -16.59930 | -49.27934 | 3633 ft | 132 kts | 118° |
| 2026-05-05 20:27 | -16.60386 | -49.27122 | 3409 ft | 128 kts | 117° |
| 2026-05-05 20:27 | -16.60976 | -49.26077 | 3150 ft | 125 kts | 117° |
| 2026-05-05 20:27 | -16.61382 | -49.25329 | 2903 ft | 116 kts | 120° |
| 2026-05-05 20:28 | -16.61805 | -49.24612 | 2753 ft | 116 kts | 118° |
| 2026-05-05 20:28 | -16.62071 | -49.24119 | 2683 ft | 121 kts | 116° |
| 2026-05-05 20:28 | -16.62500 | -49.23345 | 2537 ft | 125 kts | 118° |
| 2026-05-05 20:28 | -16.62926 | -49.22587 | 2459 ft | 111 kts | 118° |
| 2026-05-05 20:29 | -16.63219 | -49.22064 | 2443 ft | 53 kts | 121° |
| 2026-05-05 20:29 | -16.63375 | -49.21790 | 2452 ft | 40 kts | 120° |
| 2026-05-05 20:29 | -16.63462 | -49.21571 | 2455 ft | 27 kts | 99° |
| 2026-05-05 20:29 | -16.63454 | -49.21408 | 2462 ft | 17 kts | 42° |
| 2026-05-05 20:30 | -16.63372 | -49.21452 | 2458 ft | 15 kts | 301° |
| 2026-05-05 20:30 | -16.63318 | -49.21551 | 2456 ft | 18 kts | 300° |
| 2026-05-05 20:30 | -16.63248 | -49.21674 | 2446 ft | 21 kts | 300° |
| 2026-05-05 20:30 | -16.63176 | -49.21801 | 2443 ft | 19 kts | 300° |
| 2026-05-05 20:31 | -16.63112 | -49.21915 | 2439 ft | 18 kts | 300° |
| 2026-05-05 20:31 | -16.63045 | -49.22019 | 2438 ft | 17 kts | 330° |
| 2026-05-05 20:31 | -16.62973 | -49.21953 | 2451 ft | 16 kts | 80° |
| 2026-05-05 20:31 | -16.62952 | -49.21838 | 2450 ft | 16 kts | 78° |
| 2026-05-05 20:32 | -16.62929 | -49.21728 | 2463 ft | 15 kts | 78° |
| 2026-05-05 20:32 | -16.62928 | -49.21635 | 2462 ft | 11 kts | 124° |
| 2026-05-05 20:32 | -16.62993 | -49.21601 | 2461 ft | 11 kts | 154° |
| 2026-05-05 20:32 | -16.63055 | -49.21564 | 2461 ft | 10 kts | 143° |
| 2026-05-05 20:33 | -16.63065 | -49.21514 | 2461 ft | 7 kts | 53° |
| 2026-05-05 20:33 | -16.63044 | -49.21489 | 2461 ft | 3 kts | 50° |
| 2026-05-05 20:33 | -16.63038 | -49.21481 | 2461 ft | 0 kts | 49° |